LSZALFLP

Guest
Details From LSZA - Lugano
To LFLP - Meythet
Flight Number -
Tags Generated
Created
Modified
Stats Distance 117 nm / 217 km
Max Altitude 0 ft / 0 m
Waypoints 2
Social Downloads 1
Likes 0
Share VATSIM

Download

Looking for another format? Having issues loading an existing format? Contact us
Advertisement - Login to hide

Notes

Generated

Route

LSZA LFLP

ID Type Via Altitude Latitude Longitude Leg Dist Tot Dist Heading (true) Name
O LSZA APT - 0 ft / 0 m 45.99853˚ 8.90776˚ - 0 nm - Lugano
O LFLP APT - 0 ft / 0 m 45.93156˚ 6.10400˚ 117 nm 117 nm 269° / 267° Annecy Haute-Sovoie Mont Blanc Meythet

Altitude Profile

Advertisement - Login to hide

LSZA

Details ICAO LSZA (LUG)
Name Lugano
Region Switzerland
Timezone Europe/Zurich (UTC+2.0)
Stats Elevation 915 ft / 279 m (AMSL)
Location 46.004275° 8.910579°
Runways 1
Magnetic Variation 2.475° E

METAR

LSZA 221420Z 17004KT 100V200 6000 -RA FEW014 SCT035 BKN070 17/15 Q1015 NOSIG

Decode

TAF

Not found

Departure Runways

ID Width Length Bearing (true) Bearing (mag) Surface Threshold Offset Overrun Length
01 98 ft / 30 m 4,430 ft / 1,350 m 18.79° 16.32° Asphalt 361 ft / 110 m 0 ft / 0 m
19 98 ft / 30 m 4,430 ft / 1,350 m 198.79° 196.32° Asphalt 673 ft / 205 m 0 ft / 0 m

LFLP

Details ICAO LFLP (NCY)
Name Annecy Haute-Sovoie Mont Blanc Meythet
Region France
Timezone Europe/Paris (UTC+2.0)
Stats Elevation 1,520 ft / 463 m (AMSL)
Location 45.928820° 6.099601°
Runways 2
Magnetic Variation 1.792° E

METAR

LFLP 221400Z AUTO 26008KT 230V290 9999 TS FEW062/// BKN076/// ///CB 21/13 Q1012 TEMPO VRB15G25KT 3000 TSRA

Decode

TAF

TAF LFLP 220800Z 2209/2309 VRB02KT 9999 FEW035 BECMG 2209/2211 SCT045TCU TEMPO 2212/2220 SHRA SCT045CB PROB40 TEMPO 2213/2220 VRB15G25KT 3000 TSRA PROB30 TEMPO 2220/2302 4000 TSRA FEW020CB BKN025 TEMPO 2303/2308 BKN013

Decode

Destination Runways

ID Width Length Bearing (true) Bearing (mag) Surface Threshold Offset Overrun Length
04 98 ft / 30 m 5,290 ft / 1,612 m 38.51° 36.72° Asphalt 820 ft / 250 m 0 ft / 0 m
22 98 ft / 30 m 5,290 ft / 1,612 m 218.52° 216.73° Asphalt 755 ft / 230 m 0 ft / 0 m
22C 230 ft / 70 m 2,783 ft / 848 m 218.40° 216.61° Grass 0 ft / 0 m 0 ft / 0 m
4C 230 ft / 70 m 2,783 ft / 848 m 38.40° 36.61° Grass 0 ft / 0 m 0 ft / 0 m

Approach Navaids

Runway Type Ident Frequency Range Bearing (true) Bearing (mag) Slope Elevation
04 Localiser ANM 108.90 MHz 27 nm / 50 km 38.56° 36.77° - 1,520 ft / 463 m (AMSL)
04 Glidescope ANM 108.90 MHz 10 nm / 19 km 38.51° 36.72° 3.68° 1,529 ft / 466 m (AMSL)
04 DME ANM 108.90 MHz 27 nm / 50 km - - - 1,520 ft / 463 m (AMSL)